sensor_id;sensor_type;location;lat;lon;timestamp;temperature;humidity
17887;DHT22;9069;52.044;7.472;2023-01-28T00:00:52;5.50;94.70
17887;DHT22;9069;52.044;7.472;2023-01-28T00:03:18;5.40;94.50
17887;DHT22;9069;52.044;7.472;2023-01-28T00:05:45;5.40;94.40
17887;DHT22;9069;52.044;7.472;2023-01-28T00:08:12;5.40;94.40
17887;DHT22;9069;52.044;7.472;2023-01-28T00:10:40;5.40;94.40
17887;DHT22;9069;52.044;7.472;2023-01-28T00:13:11;5.40;94.30
17887;DHT22;9069;52.044;7.472;2023-01-28T00:15:40;5.40;94.30
17887;DHT22;9069;52.044;7.472;2023-01-28T00:18:07;5.40;94.50
17887;DHT22;9069;52.044;7.472;2023-01-28T00:20:34;5.30;94.40
17887;DHT22;9069;52.044;7.472;2023-01-28T00:23:01;5.30;94.40
17887;DHT22;9069;52.044;7.472;2023-01-28T00:25:28;5.30;94.30
17887;DHT22;9069;52.044;7.472;2023-01-28T00:27:54;5.30;94.30
17887;DHT22;9069;52.044;7.472;2023-01-28T00:30:21;5.30;94.30
17887;DHT22;9069;52.044;7.472;2023-01-28T00:32:49;5.30;94.30
17887;DHT22;9069;52.044;7.472;2023-01-28T00:35:17;5.30;94.10
17887;DHT22;9069;52.044;7.472;2023-01-28T00:37:45;5.30;94.00
17887;DHT22;9069;52.044;7.472;2023-01-28T00:40:12;5.30;93.90
17887;DHT22;9069;52.044;7.472;2023-01-28T00:42:39;5.30;94.00
17887;DHT22;9069;52.044;7.472;2023-01-28T00:45:06;5.20;94.00
17887;DHT22;9069;52.044;7.472;2023-01-28T00:47:34;5.20;93.80
17887;DHT22;9069;52.044;7.472;2023-01-28T00:50:01;5.20;93.70
17887;DHT22;9069;52.044;7.472;2023-01-28T00:52:29;5.20;93.90
17887;DHT22;9069;52.044;7.472;2023-01-28T00:54:56;5.20;94.00
17887;DHT22;9069;52.044;7.472;2023-01-28T00:57:25;5.20;94.00
17887;DHT22;9069;52.044;7.472;2023-01-28T00:59:51;5.20;94.10
17887;DHT22;9069;52.044;7.472;2023-01-28T01:02:20;5.20;94.20
17887;DHT22;9069;52.044;7.472;2023-01-28T01:04:47;5.20;94.20
17887;DHT22;9069;52.044;7.472;2023-01-28T01:07:27;5.20;94.20
17887;DHT22;9069;52.044;7.472;2023-01-28T01:10:13;5.20;94.20
17887;DHT22;9069;52.044;7.472;2023-01-28T01:12:40;5.20;94.20
17887;DHT22;9069;52.044;7.472;2023-01-28T01:15:09;5.20;94.10
17887;DHT22;9069;52.044;7.472;2023-01-28T01:17:37;5.20;93.80
17887;DHT22;9069;52.044;7.472;2023-01-28T01:20:10;5.20;93.80
17887;DHT22;9069;52.044;7.472;2023-01-28T01:22:37;5.20;93.80
17887;DHT22;9069;52.044;7.472;2023-01-28T01:25:05;5.20;94.00
17887;DHT22;9069;52.044;7.472;2023-01-28T01:27:32;5.20;93.90
17887;DHT22;9069;52.044;7.472;2023-01-28T01:29:59;5.20;93.90
17887;DHT22;9069;52.044;7.472;2023-01-28T01:32:30;5.20;93.90
17887;DHT22;9069;52.044;7.472;2023-01-28T01:34:58;5.20;93.50
17887;DHT22;9069;52.044;7.472;2023-01-28T01:37:24;5.20;93.90
17887;DHT22;9069;52.044;7.472;2023-01-28T01:39:51;5.20;93.90
17887;DHT22;9069;52.044;7.472;2023-01-28T01:42:18;5.20;93.90
17887;DHT22;9069;52.044;7.472;2023-01-28T01:44:55;5.20;93.90
17887;DHT22;9069;52.044;7.472;2023-01-28T01:50:16;5.20;93.30
17887;DHT22;9069;52.044;7.472;2023-01-28T01:52:45;5.20;93.30
17887;DHT22;9069;52.044;7.472;2023-01-28T01:55:16;5.20;93.50
17887;DHT22;9069;52.044;7.472;2023-01-28T01:57:45;5.10;93.20
17887;DHT22;9069;52.044;7.472;2023-01-28T02:00:13;5.10;93.10
17887;DHT22;9069;52.044;7.472;2023-01-28T02:02:42;5.10;93.20
17887;DHT22;9069;52.044;7.472;2023-01-28T02:05:15;5.10;93.00
17887;DHT22;9069;52.044;7.472;2023-01-28T02:07:44;5.10;92.70
17887;DHT22;9069;52.044;7.472;2023-01-28T02:10:12;5.10;92.80
17887;DHT22;9069;52.044;7.472;2023-01-28T02:12:42;5.10;92.80
17887;DHT22;9069;52.044;7.472;2023-01-28T02:15:17;5.10;92.70
17887;DHT22;9069;52.044;7.472;2023-01-28T02:17:45;5.00;92.70
17887;DHT22;9069;52.044;7.472;2023-01-28T02:20:23;5.00;93.30
17887;DHT22;9069;52.044;7.472;2023-01-28T02:22:55;5.00;93.10
17887;DHT22;9069;52.044;7.472;2023-01-28T02:28:44;5.00;92.60
17887;DHT22;9069;52.044;7.472;2023-01-28T02:31:43;5.00;93.00
17887;DHT22;9069;52.044;7.472;2023-01-28T02:40:19;5.00;92.60
17887;DHT22;9069;52.044;7.472;2023-01-28T02:42:47;4.90;91.90
17887;DHT22;9069;52.044;7.472;2023-01-28T02:45:24;4.90;92.60
17887;DHT22;9069;52.044;7.472;2023-01-28T02:47:52;4.90;92.10
17887;DHT22;9069;52.044;7.472;2023-01-28T02:50:35;4.90;92.50
17887;DHT22;9069;52.044;7.472;2023-01-28T02:53:18;4.90;92.00
17887;DHT22;9069;52.044;7.472;2023-01-28T02:56:13;4.90;92.00
17887;DHT22;9069;52.044;7.472;2023-01-28T03:01:23;4.90;92.50
17887;DHT22;9069;52.044;7.472;2023-01-28T03:06:36;4.90;92.60
17887;DHT22;9069;52.044;7.472;2023-01-28T03:09:07;4.90;92.90
17887;DHT22;9069;52.044;7.472;2023-01-28T03:12:15;4.80;92.90
17887;DHT22;9069;52.044;7.472;2023-01-28T03:15:12;4.80;92.50
17887;DHT22;9069;52.044;7.472;2023-01-28T03:18:09;4.90;92.90
17887;DHT22;9069;52.044;7.472;2023-01-28T03:21:11;4.90;92.80
17887;DHT22;9069;52.044;7.472;2023-01-28T03:24:27;4.90;92.80
17887;DHT22;9069;52.044;7.472;2023-01-28T03:27:27;4.90;92.60
17887;DHT22;9069;52.044;7.472;2023-01-28T03:30:18;4.90;92.40
17887;DHT22;9069;52.044;7.472;2023-01-28T03:33:09;4.90;92.50
17887;DHT22;9069;52.044;7.472;2023-01-28T03:35:55;4.80;92.70
17887;DHT22;9069;52.044;7.472;2023-01-28T03:38:41;4.80;92.80
17887;DHT22;9069;52.044;7.472;2023-01-28T03:41:11;4.80;92.60
17887;DHT22;9069;52.044;7.472;2023-01-28T03:43:39;4.80;92.70
17887;DHT22;9069;52.044;7.472;2023-01-28T03:46:07;4.80;92.60
17887;DHT22;9069;52.044;7.472;2023-01-28T03:48:34;4.80;92.50
17887;DHT22;9069;52.044;7.472;2023-01-28T03:51:04;4.80;92.20
17887;DHT22;9069;52.044;7.472;2023-01-28T03:53:31;4.80;92.00
17887;DHT22;9069;52.044;7.472;2023-01-28T03:55:58;4.80;92.00
17887;DHT22;9069;52.044;7.472;2023-01-28T03:58:25;4.80;92.10
17887;DHT22;9069;52.044;7.472;2023-01-28T04:01:13;4.70;92.20
17887;DHT22;9069;52.044;7.472;2023-01-28T04:03:41;4.70;92.20
17887;DHT22;9069;52.044;7.472;2023-01-28T04:06:12;4.70;92.20
17887;DHT22;9069;52.044;7.472;2023-01-28T04:08:54;4.70;92.10
17887;DHT22;9069;52.044;7.472;2023-01-28T04:11:45;4.70;92.00
17887;DHT22;9069;52.044;7.472;2023-01-28T04:14:17;4.70;92.00
17887;DHT22;9069;52.044;7.472;2023-01-28T04:16:54;4.70;92.00
17887;DHT22;9069;52.044;7.472;2023-01-28T04:19:23;4.70;92.10
17887;DHT22;9069;52.044;7.472;2023-01-28T04:21:51;4.70;92.00
17887;DHT22;9069;52.044;7.472;2023-01-28T04:24:21;4.70;91.80
17887;DHT22;9069;52.044;7.472;2023-01-28T04:26:48;4.60;91.70
17887;DHT22;9069;52.044;7.472;2023-01-28T04:29:15;4.60;91.70
17887;DHT22;9069;52.044;7.472;2023-01-28T04:31:42;4.60;91.70
17887;DHT22;9069;52.044;7.472;2023-01-28T04:34:16;4.60;91.70
17887;DHT22;9069;52.044;7.472;2023-01-28T04:37:12;4.60;91.70
17887;DHT22;9069;52.044;7.472;2023-01-28T04:39:57;4.60;91.70
17887;DHT22;9069;52.044;7.472;2023-01-28T04:42:54;4.60;91.60
17887;DHT22;9069;52.044;7.472;2023-01-28T04:45:47;4.60;91.30
17887;DHT22;9069;52.044;7.472;2023-01-28T04:48:23;4.50;91.80
17887;DHT22;9069;52.044;7.472;2023-01-28T04:51:04;4.60;91.90
17887;DHT22;9069;52.044;7.472;2023-01-28T04:53:44;4.50;92.00
17887;DHT22;9069;52.044;7.472;2023-01-28T04:56:23;4.50;92.20
17887;DHT22;9069;52.044;7.472;2023-01-28T04:58:50;4.50;92.50
17887;DHT22;9069;52.044;7.472;2023-01-28T05:01:17;4.50;92.50
17887;DHT22;9069;52.044;7.472;2023-01-28T05:03:43;4.50;92.50
17887;DHT22;9069;52.044;7.472;2023-01-28T05:06:19;4.60;92.50
17887;DHT22;9069;52.044;7.472;2023-01-28T05:08:46;4.60;92.50
17887;DHT22;9069;52.044;7.472;2023-01-28T05:11:14;4.60;92.50
17887;DHT22;9069;52.044;7.472;2023-01-28T05:13:43;4.60;92.40
17887;DHT22;9069;52.044;7.472;2023-01-28T05:16:12;4.60;92.40
17887;DHT22;9069;52.044;7.472;2023-01-28T05:18:39;4.50;92.40
17887;DHT22;9069;52.044;7.472;2023-01-28T05:21:14;4.60;92.50
17887;DHT22;9069;52.044;7.472;2023-01-28T05:23:42;4.60;92.50
17887;DHT22;9069;52.044;7.472;2023-01-28T05:26:09;4.60;92.60
17887;DHT22;9069;52.044;7.472;2023-01-28T05:28:37;4.60;92.60
17887;DHT22;9069;52.044;7.472;2023-01-28T05:31:05;4.70;92.70
17887;DHT22;9069;52.044;7.472;2023-01-28T05:33:33;4.60;92.50
17887;DHT22;9069;52.044;7.472;2023-01-28T05:36:01;4.70;92.50
17887;DHT22;9069;52.044;7.472;2023-01-28T05:38:29;4.60;92.30
17887;DHT22;9069;52.044;7.472;2023-01-28T05:40:56;4.70;92.30
17887;DHT22;9069;52.044;7.472;2023-01-28T05:43:23;4.60;92.30
17887;DHT22;9069;52.044;7.472;2023-01-28T05:46:06;4.70;92.20
17887;DHT22;9069;52.044;7.472;2023-01-28T05:48:52;4.70;92.30
17887;DHT22;9069;52.044;7.472;2023-01-28T05:51:41;4.70;92.40
17887;DHT22;9069;52.044;7.472;2023-01-28T05:54:10;4.60;92.30
17887;DHT22;9069;52.044;7.472;2023-01-28T05:56:36;4.70;92.50
17887;DHT22;9069;52.044;7.472;2023-01-28T05:59:05;4.60;92.40
17887;DHT22;9069;52.044;7.472;2023-01-28T06:01:33;4.70;92.30
17887;DHT22;9069;52.044;7.472;2023-01-28T06:03:59;4.70;92.40
17887;DHT22;9069;52.044;7.472;2023-01-28T06:06:29;4.70;92.50
17887;DHT22;9069;52.044;7.472;2023-01-28T06:08:56;4.70;92.30
17887;DHT22;9069;52.044;7.472;2023-01-28T06:11:26;4.70;92.40
17887;DHT22;9069;52.044;7.472;2023-01-28T06:13:57;4.70;92.30
17887;DHT22;9069;52.044;7.472;2023-01-28T06:16:29;4.70;92.40
17887;DHT22;9069;52.044;7.472;2023-01-28T06:19:14;4.70;92.30
17887;DHT22;9069;52.044;7.472;2023-01-28T06:21:40;4.70;92.10
17887;DHT22;9069;52.044;7.472;2023-01-28T06:24:09;4.70;92.10
17887;DHT22;9069;52.044;7.472;2023-01-28T06:26:36;4.70;92.20
17887;DHT22;9069;52.044;7.472;2023-01-28T06:29:03;4.70;92.10
17887;DHT22;9069;52.044;7.472;2023-01-28T06:31:30;4.70;92.10
17887;DHT22;9069;52.044;7.472;2023-01-28T06:33:56;4.70;92.00
17887;DHT22;9069;52.044;7.472;2023-01-28T06:36:23;4.60;91.90
17887;DHT22;9069;52.044;7.472;2023-01-28T06:38:50;4.70;92.00
17887;DHT22;9069;52.044;7.472;2023-01-28T06:41:16;4.60;91.90
17887;DHT22;9069;52.044;7.472;2023-01-28T06:43:43;4.60;91.90
17887;DHT22;9069;52.044;7.472;2023-01-28T06:46:10;4.60;91.90
17887;DHT22;9069;52.044;7.472;2023-01-28T06:48:36;4.60;92.00
17887;DHT22;9069;52.044;7.472;2023-01-28T06:51:03;4.60;92.00
17887;DHT22;9069;52.044;7.472;2023-01-28T06:53:30;4.60;92.00
17887;DHT22;9069;52.044;7.472;2023-01-28T06:55:57;4.60;92.00
17887;DHT22;9069;52.044;7.472;2023-01-28T06:58:24;4.60;92.00
17887;DHT22;9069;52.044;7.472;2023-01-28T07:00:52;4.60;91.80
17887;DHT22;9069;52.044;7.472;2023-01-28T07:03:19;4.60;91.50
17887;DHT22;9069;52.044;7.472;2023-01-28T07:05:46;4.60;91.50
17887;DHT22;9069;52.044;7.472;2023-01-28T07:08:13;4.60;91.70
17887;DHT22;9069;52.044;7.472;2023-01-28T07:10:39;4.60;91.90
17887;DHT22;9069;52.044;7.472;2023-01-28T07:13:06;4.60;92.00
17887;DHT22;9069;52.044;7.472;2023-01-28T07:15:33;4.60;92.00
17887;DHT22;9069;52.044;7.472;2023-01-28T07:17:59;4.60;92.10
17887;DHT22;9069;52.044;7.472;2023-01-28T07:20:27;4.60;92.10
17887;DHT22;9069;52.044;7.472;2023-01-28T07:22:53;4.60;92.00
17887;DHT22;9069;52.044;7.472;2023-01-28T07:25:20;4.60;92.00
17887;DHT22;9069;52.044;7.472;2023-01-28T07:27:51;4.60;92.00
17887;DHT22;9069;52.044;7.472;2023-01-28T07:30:19;4.60;91.80
17887;DHT22;9069;52.044;7.472;2023-01-28T07:32:51;4.60;91.90
17887;DHT22;9069;52.044;7.472;2023-01-28T07:35:18;4.60;91.90
17887;DHT22;9069;52.044;7.472;2023-01-28T07:37:50;4.60;91.70
17887;DHT22;9069;52.044;7.472;2023-01-28T07:40:18;4.70;91.30
17887;DHT22;9069;52.044;7.472;2023-01-28T07:42:44;4.60;91.70
17887;DHT22;9069;52.044;7.472;2023-01-28T07:45:11;4.60;91.50
17887;DHT22;9069;52.044;7.472;2023-01-28T07:47:38;4.60;91.10
17887;DHT22;9069;52.044;7.472;2023-01-28T07:50:05;4.60;91.00
17887;DHT22;9069;52.044;7.472;2023-01-28T07:52:32;4.60;90.90
17887;DHT22;9069;52.044;7.472;2023-01-28T07:55:04;4.60;90.90
17887;DHT22;9069;52.044;7.472;2023-01-28T07:57:31;4.60;90.80
17887;DHT22;9069;52.044;7.472;2023-01-28T07:59:57;4.60;90.70
17887;DHT22;9069;52.044;7.472;2023-01-28T08:02:24;4.60;90.70
17887;DHT22;9069;52.044;7.472;2023-01-28T08:04:51;4.50;90.80
17887;DHT22;9069;52.044;7.472;2023-01-28T08:07:18;4.50;91.00
17887;DHT22;9069;52.044;7.472;2023-01-28T08:09:45;4.50;91.20
17887;DHT22;9069;52.044;7.472;2023-01-28T08:12:12;4.50;91.20
17887;DHT22;9069;52.044;7.472;2023-01-28T08:14:38;4.50;91.30
17887;DHT22;9069;52.044;7.472;2023-01-28T08:17:05;4.50;91.20
17887;DHT22;9069;52.044;7.472;2023-01-28T08:19:32;4.50;91.40
17887;DHT22;9069;52.044;7.472;2023-01-28T08:21:59;4.50;91.50
17887;DHT22;9069;52.044;7.472;2023-01-28T08:24:25;4.50;91.70
17887;DHT22;9069;52.044;7.472;2023-01-28T08:26:52;4.60;91.60
17887;DHT22;9069;52.044;7.472;2023-01-28T08:29:19;4.50;91.30
17887;DHT22;9069;52.044;7.472;2023-01-28T08:31:45;4.60;91.20
17887;DHT22;9069;52.044;7.472;2023-01-28T08:34:12;4.60;91.20
17887;DHT22;9069;52.044;7.472;2023-01-28T08:36:39;4.60;90.90
17887;DHT22;9069;52.044;7.472;2023-01-28T08:39:06;4.60;90.90
17887;DHT22;9069;52.044;7.472;2023-01-28T08:41:32;4.60;91.20
17887;DHT22;9069;52.044;7.472;2023-01-28T08:43:59;4.60;91.40
17887;DHT22;9069;52.044;7.472;2023-01-28T08:46:26;4.60;91.60
17887;DHT22;9069;52.044;7.472;2023-01-28T08:48:53;4.70;91.70
17887;DHT22;9069;52.044;7.472;2023-01-28T08:51:20;4.60;91.70
17887;DHT22;9069;52.044;7.472;2023-01-28T08:53:46;4.70;91.70
17887;DHT22;9069;52.044;7.472;2023-01-28T08:56:13;4.70;91.60
17887;DHT22;9069;52.044;7.472;2023-01-28T08:58:40;4.70;91.50
17887;DHT22;9069;52.044;7.472;2023-01-28T09:01:07;4.70;91.40
17887;DHT22;9069;52.044;7.472;2023-01-28T09:03:33;4.70;91.30
17887;DHT22;9069;52.044;7.472;2023-01-28T09:06:03;4.80;91.30
17887;DHT22;9069;52.044;7.472;2023-01-28T09:08:30;4.80;91.30
17887;DHT22;9069;52.044;7.472;2023-01-28T09:10:57;4.80;91.40
17887;DHT22;9069;52.044;7.472;2023-01-28T09:13:26;4.80;91.30
17887;DHT22;9069;52.044;7.472;2023-01-28T09:15:54;4.80;91.20
17887;DHT22;9069;52.044;7.472;2023-01-28T09:18:20;4.80;91.40
17887;DHT22;9069;52.044;7.472;2023-01-28T09:20:47;4.90;91.10
17887;DHT22;9069;52.044;7.472;2023-01-28T09:23:14;4.90;90.90
17887;DHT22;9069;52.044;7.472;2023-01-28T09:25:41;4.90;90.80
17887;DHT22;9069;52.044;7.472;2023-01-28T09:28:08;4.90;90.90
17887;DHT22;9069;52.044;7.472;2023-01-28T09:30:34;4.90;90.80
17887;DHT22;9069;52.044;7.472;2023-01-28T09:33:03;4.90;90.80
17887;DHT22;9069;52.044;7.472;2023-01-28T09:35:31;4.90;90.90
17887;DHT22;9069;52.044;7.472;2023-01-28T09:37:58;4.90;90.40
17887;DHT22;9069;52.044;7.472;2023-01-28T09:40:41;5.00;90.10
17887;DHT22;9069;52.044;7.472;2023-01-28T09:45:59;5.00;87.40
17887;DHT22;9069;52.044;7.472;2023-01-28T09:48:41;5.00;87.90
17887;DHT22;9069;52.044;7.472;2023-01-28T09:51:31;4.90;87.50
17887;DHT22;9069;52.044;7.472;2023-01-28T09:54:09;4.90;88.00
17887;DHT22;9069;52.044;7.472;2023-01-28T09:56:41;4.90;89.10
17887;DHT22;9069;52.044;7.472;2023-01-28T10:02:30;4.90;89.30
17887;DHT22;9069;52.044;7.472;2023-01-28T10:05:22;4.90;88.30
17887;DHT22;9069;52.044;7.472;2023-01-28T10:08:06;5.00;88.60
17887;DHT22;9069;52.044;7.472;2023-01-28T10:10:55;5.00;89.30
17887;DHT22;9069;52.044;7.472;2023-01-28T10:16:26;5.00;90.10
17887;DHT22;9069;52.044;7.472;2023-01-28T10:19:11;5.10;90.10
17887;DHT22;9069;52.044;7.472;2023-01-28T10:21:49;5.10;90.30
17887;DHT22;9069;52.044;7.472;2023-01-28T10:24:33;5.10;90.10
17887;DHT22;9069;52.044;7.472;2023-01-28T10:27:07;5.20;90.40
17887;DHT22;9069;52.044;7.472;2023-01-28T10:29:35;5.20;90.50
17887;DHT22;9069;52.044;7.472;2023-01-28T10:32:15;5.20;90.50
17887;DHT22;9069;52.044;7.472;2023-01-28T10:34:42;5.20;90.00
17887;DHT22;9069;52.044;7.472;2023-01-28T10:37:12;5.30;90.50
17887;DHT22;9069;52.044;7.472;2023-01-28T10:39:39;5.30;89.30
17887;DHT22;9069;52.044;7.472;2023-01-28T10:42:26;5.30;89.40
17887;DHT22;9069;52.044;7.472;2023-01-28T10:45:00;5.30;88.00
17887;DHT22;9069;52.044;7.472;2023-01-28T10:47:37;5.40;89.60
17887;DHT22;9069;52.044;7.472;2023-01-28T10:50:04;5.40;89.70
17887;DHT22;9069;52.044;7.472;2023-01-28T10:52:31;5.40;90.20
17887;DHT22;9069;52.044;7.472;2023-01-28T10:55:00;5.40;90.10
17887;DHT22;9069;52.044;7.472;2023-01-28T10:57:27;5.50;89.40
17887;DHT22;9069;52.044;7.472;2023-01-28T10:59:54;5.50;89.00
17887;DHT22;9069;52.044;7.472;2023-01-28T11:02:26;5.50;89.40
17887;DHT22;9069;52.044;7.472;2023-01-28T11:05:22;5.50;88.60
17887;DHT22;9069;52.044;7.472;2023-01-28T11:08:05;5.50;88.30
17887;DHT22;9069;52.044;7.472;2023-01-28T11:10:35;5.60;88.70
17887;DHT22;9069;52.044;7.472;2023-01-28T11:13:05;5.60;89.90
17887;DHT22;9069;52.044;7.472;2023-01-28T11:18:26;5.70;89.10
17887;DHT22;9069;52.044;7.472;2023-01-28T11:21:00;5.70;89.30
17887;DHT22;9069;52.044;7.472;2023-01-28T11:23:52;5.80;90.10
17887;DHT22;9069;52.044;7.472;2023-01-28T11:26:23;5.90;90.00
17887;DHT22;9069;52.044;7.472;2023-01-28T11:28:52;5.90;90.20
17887;DHT22;9069;52.044;7.472;2023-01-28T11:31:20;6.00;90.10
17887;DHT22;9069;52.044;7.472;2023-01-28T11:33:59;6.10;89.30
17887;DHT22;9069;52.044;7.472;2023-01-28T11:36:31;6.10;88.30
17887;DHT22;9069;52.044;7.472;2023-01-28T11:39:13;6.20;89.60
17887;DHT22;9069;52.044;7.472;2023-01-28T11:41:41;6.20;89.00
17887;DHT22;9069;52.044;7.472;2023-01-28T11:44:28;6.20;89.20
17887;DHT22;9069;52.044;7.472;2023-01-28T11:47:09;6.30;87.40
17887;DHT22;9069;52.044;7.472;2023-01-28T11:55:39;6.40;87.90
17887;DHT22;9069;52.044;7.472;2023-01-28T11:58:30;6.40;88.70
17887;DHT22;9069;52.044;7.472;2023-01-28T12:01:06;6.50;87.90
17887;DHT22;9069;52.044;7.472;2023-01-28T12:06:42;6.60;88.00
17887;DHT22;9069;52.044;7.472;2023-01-28T12:14:56;6.70;87.20
17887;DHT22;9069;52.044;7.472;2023-01-28T12:26:03;6.70;86.80
17887;DHT22;9069;52.044;7.472;2023-01-28T12:28:59;6.70;86.10
17887;DHT22;9069;52.044;7.472;2023-01-28T12:37:32;6.70;85.00
17887;DHT22;9069;52.044;7.472;2023-01-28T12:43:26;6.60;84.40
17887;DHT22;9069;52.044;7.472;2023-01-28T12:46:02;6.60;84.80
17887;DHT22;9069;52.044;7.472;2023-01-28T12:48:38;6.60;85.60
17887;DHT22;9069;52.044;7.472;2023-01-28T12:51:17;6.60;84.90
17887;DHT22;9069;52.044;7.472;2023-01-28T12:53:53;6.50;84.80
17887;DHT22;9069;52.044;7.472;2023-01-28T12:56:23;6.50;85.70
17887;DHT22;9069;52.044;7.472;2023-01-28T12:59:03;6.50;85.80
17887;DHT22;9069;52.044;7.472;2023-01-28T13:01:40;6.50;85.20
17887;DHT22;9069;52.044;7.472;2023-01-28T13:07:12;6.50;85.20
17887;DHT22;9069;52.044;7.472;2023-01-28T13:09:48;6.70;86.60
17887;DHT22;9069;52.044;7.472;2023-01-28T13:12:16;6.50;86.70
17887;DHT22;9069;52.044;7.472;2023-01-28T13:14:44;6.60;87.00
17887;DHT22;9069;52.044;7.472;2023-01-28T13:17:26;6.60;86.40
17887;DHT22;9069;52.044;7.472;2023-01-28T13:19:54;6.60;85.50
17887;DHT22;9069;52.044;7.472;2023-01-28T13:24:54;6.70;86.00
17887;DHT22;9069;52.044;7.472;2023-01-28T13:27:26;6.70;87.30
17887;DHT22;9069;52.044;7.472;2023-01-28T13:30:24;6.70;87.10
17887;DHT22;9069;52.044;7.472;2023-01-28T13:36:44;6.80;85.70
17887;DHT22;9069;52.044;7.472;2023-01-28T13:41:47;6.90;86.20
17887;DHT22;9069;52.044;7.472;2023-01-28T13:44:30;6.90;86.30
17887;DHT22;9069;52.044;7.472;2023-01-28T13:49:41;6.90;85.50
17887;DHT22;9069;52.044;7.472;2023-01-28T13:54:37;7.00;86.10
17887;DHT22;9069;52.044;7.472;2023-01-28T14:08:22;7.00;84.60
17887;DHT22;9069;52.044;7.472;2023-01-28T14:19:30;6.90;84.90
17887;DHT22;9069;52.044;7.472;2023-01-28T14:21:58;6.90;85.10
17887;DHT22;9069;52.044;7.472;2023-01-28T14:24:26;6.90;85.00
17887;DHT22;9069;52.044;7.472;2023-01-28T14:32:25;6.90;84.40
17887;DHT22;9069;52.044;7.472;2023-01-28T14:34:56;6.90;85.00
17887;DHT22;9069;52.044;7.472;2023-01-28T14:37:28;6.90;84.90
17887;DHT22;9069;52.044;7.472;2023-01-28T14:39:59;6.90;84.50
17887;DHT22;9069;52.044;7.472;2023-01-28T14:42:34;6.90;84.30
17887;DHT22;9069;52.044;7.472;2023-01-28T14:45:21;6.90;84.10
17887;DHT22;9069;52.044;7.472;2023-01-28T14:51:04;6.90;84.70
17887;DHT22;9069;52.044;7.472;2023-01-28T14:57:30;6.90;83.90
17887;DHT22;9069;52.044;7.472;2023-01-28T15:00:01;6.90;83.90
17887;DHT22;9069;52.044;7.472;2023-01-28T15:02:30;6.90;85.30
17887;DHT22;9069;52.044;7.472;2023-01-28T15:05:08;6.90;85.00
17887;DHT22;9069;52.044;7.472;2023-01-28T15:07:35;6.80;84.40
17887;DHT22;9069;52.044;7.472;2023-01-28T15:12:45;6.80;84.30
17887;DHT22;9069;52.044;7.472;2023-01-28T15:15:31;6.80;85.00
17887;DHT22;9069;52.044;7.472;2023-01-28T15:18:17;6.80;84.80
17887;DHT22;9069;52.044;7.472;2023-01-28T15:20:49;6.80;84.80
17887;DHT22;9069;52.044;7.472;2023-01-28T15:23:24;6.80;85.40
17887;DHT22;9069;52.044;7.472;2023-01-28T15:25:51;6.70;85.30
17887;DHT22;9069;52.044;7.472;2023-01-28T15:28:27;6.70;85.50
17887;DHT22;9069;52.044;7.472;2023-01-28T15:30:55;6.70;84.90
17887;DHT22;9069;52.044;7.472;2023-01-28T15:33:22;6.70;85.50
17887;DHT22;9069;52.044;7.472;2023-01-28T15:35:51;6.70;85.40
17887;DHT22;9069;52.044;7.472;2023-01-28T15:38:18;6.70;85.50
17887;DHT22;9069;52.044;7.472;2023-01-28T15:40:54;6.70;85.70
17887;DHT22;9069;52.044;7.472;2023-01-28T15:43:23;6.70;85.30
17887;DHT22;9069;52.044;7.472;2023-01-28T15:45:53;6.70;85.30
17887;DHT22;9069;52.044;7.472;2023-01-28T15:48:25;6.70;85.50
17887;DHT22;9069;52.044;7.472;2023-01-28T15:51:23;6.60;85.50
17887;DHT22;9069;52.044;7.472;2023-01-28T15:53:57;6.60;84.80
17887;DHT22;9069;52.044;7.472;2023-01-28T15:56:26;6.60;85.40
17887;DHT22;9069;52.044;7.472;2023-01-28T15:58:54;6.60;85.30
17887;DHT22;9069;52.044;7.472;2023-01-28T16:01:22;6.60;85.50
17887;DHT22;9069;52.044;7.472;2023-01-28T16:04:04;6.60;85.80
17887;DHT22;9069;52.044;7.472;2023-01-28T16:06:39;6.50;85.50
17887;DHT22;9069;52.044;7.472;2023-01-28T16:09:26;6.60;85.50
17887;DHT22;9069;52.044;7.472;2023-01-28T16:12:00;6.50;85.20
17887;DHT22;9069;52.044;7.472;2023-01-28T16:14:42;6.50;85.50
17887;DHT22;9069;52.044;7.472;2023-01-28T16:17:16;6.50;85.70
17887;DHT22;9069;52.044;7.472;2023-01-28T16:19:47;6.40;85.40
17887;DHT22;9069;52.044;7.472;2023-01-28T16:22:21;6.40;85.50
17887;DHT22;9069;52.044;7.472;2023-01-28T16:24:52;6.40;85.20
17887;DHT22;9069;52.044;7.472;2023-01-28T16:27:25;6.40;85.40
17887;DHT22;9069;52.044;7.472;2023-01-28T16:29:52;6.40;85.00
17887;DHT22;9069;52.044;7.472;2023-01-28T16:32:36;6.30;85.40
17887;DHT22;9069;52.044;7.472;2023-01-28T16:35:30;6.30;84.90
17887;DHT22;9069;52.044;7.472;2023-01-28T16:38:17;6.30;84.80
17887;DHT22;9069;52.044;7.472;2023-01-28T16:40:45;6.20;85.30
17887;DHT22;9069;52.044;7.472;2023-01-28T16:43:13;6.20;85.20
17887;DHT22;9069;52.044;7.472;2023-01-28T16:45:41;6.10;86.00
17887;DHT22;9069;52.044;7.472;2023-01-28T16:48:08;6.10;85.40
17887;DHT22;9069;52.044;7.472;2023-01-28T16:50:38;6.00;85.40
17887;DHT22;9069;52.044;7.472;2023-01-28T16:53:14;6.00;85.40
17887;DHT22;9069;52.044;7.472;2023-01-28T16:55:42;5.90;85.10
17887;DHT22;9069;52.044;7.472;2023-01-28T16:58:09;5.90;85.50
17887;DHT22;9069;52.044;7.472;2023-01-28T17:00:36;5.90;85.70
17887;DHT22;9069;52.044;7.472;2023-01-28T17:03:03;5.80;85.90
17887;DHT22;9069;52.044;7.472;2023-01-28T17:05:31;5.80;86.10
17887;DHT22;9069;52.044;7.472;2023-01-28T17:07:58;5.70;86.40
17887;DHT22;9069;52.044;7.472;2023-01-28T17:10:25;5.70;86.50
17887;DHT22;9069;52.044;7.472;2023-01-28T17:12:51;5.70;86.70
17887;DHT22;9069;52.044;7.472;2023-01-28T17:15:18;5.60;86.80
17887;DHT22;9069;52.044;7.472;2023-01-28T17:17:48;5.60;87.00
17887;DHT22;9069;52.044;7.472;2023-01-28T17:20:16;5.60;87.00
17887;DHT22;9069;52.044;7.472;2023-01-28T17:22:43;5.60;87.30
17887;DHT22;9069;52.044;7.472;2023-01-28T17:25:10;5.60;87.50
17887;DHT22;9069;52.044;7.472;2023-01-28T17:27:37;5.60;87.70
17887;DHT22;9069;52.044;7.472;2023-01-28T17:30:04;5.50;87.70
17887;DHT22;9069;52.044;7.472;2023-01-28T17:32:31;5.50;87.80
17887;DHT22;9069;52.044;7.472;2023-01-28T17:34:58;5.50;87.90
17887;DHT22;9069;52.044;7.472;2023-01-28T17:37:25;5.40;87.80
17887;DHT22;9069;52.044;7.472;2023-01-28T17:39:51;5.50;87.80
17887;DHT22;9069;52.044;7.472;2023-01-28T17:42:18;5.40;87.80
17887;DHT22;9069;52.044;7.472;2023-01-28T17:44:45;5.40;88.00
17887;DHT22;9069;52.044;7.472;2023-01-28T17:47:11;5.40;88.80
17887;DHT22;9069;52.044;7.472;2023-01-28T17:49:38;5.40;88.20
17887;DHT22;9069;52.044;7.472;2023-01-28T17:52:05;5.40;88.30
17887;DHT22;9069;52.044;7.472;2023-01-28T17:54:33;5.30;88.40
17887;DHT22;9069;52.044;7.472;2023-01-28T17:57:00;5.30;88.60
17887;DHT22;9069;52.044;7.472;2023-01-28T17:59:27;5.30;88.60
17887;DHT22;9069;52.044;7.472;2023-01-28T18:01:54;5.30;88.70
17887;DHT22;9069;52.044;7.472;2023-01-28T18:04:21;5.20;88.70
17887;DHT22;9069;52.044;7.472;2023-01-28T18:06:47;5.20;88.70
17887;DHT22;9069;52.044;7.472;2023-01-28T18:09:14;5.20;88.60
17887;DHT22;9069;52.044;7.472;2023-01-28T18:11:41;5.20;88.70
17887;DHT22;9069;52.044;7.472;2023-01-28T18:14:08;5.20;88.70
17887;DHT22;9069;52.044;7.472;2023-01-28T18:16:35;5.10;88.70
17887;DHT22;9069;52.044;7.472;2023-01-28T18:19:02;5.10;88.70
17887;DHT22;9069;52.044;7.472;2023-01-28T18:21:36;5.10;89.60
17887;DHT22;9069;52.044;7.472;2023-01-28T18:24:24;5.00;88.80
17887;DHT22;9069;52.044;7.472;2023-01-28T18:26:52;5.00;88.90